Time;durP1;ratioP1;P1;durP2;ratioP2;P2;SDS_P1;SDS_P2;PMS_P1;PMS_P2;Temp;Humidity;BMP_temperature;BMP_pressure;BME280_temperature;BME280_humidity;BME280_pressure;Samples;Min_cycle;Max_cycle;Signal;HPM_P1;HPM_P2
2021/05/04 00:00:22;;;;;;;11.40;6.10;;;;;;;3.97;73.14;99850.25;232556;1177;116267;-68
2021/05/04 00:05:47;;;;;;;9.13;5.57;;;;;;;4.00;72.89;99854.30;232131;1178;116446;-67
2021/05/04 00:10:51;;;;;;;10.10;6.90;;;;;;;3.99;72.84;99860.58;232469;1178;115870;-67
2021/05/04 00:15:55;;;;;;;9.70;6.70;;;;;;;3.97;72.70;99860.80;232054;1177;115295;-66
2021/05/04 00:20:57;;;;;;;18.35;9.43;;;;;;;4.05;72.78;99854.55;232617;1173;114996;-67
2021/05/04 00:26:01;;;;;;;9.70;6.17;;;;;;;4.10;73.23;99852.17;232242;1177;115671;-67
2021/05/04 00:31:04;;;;;;;14.70;6.75;;;;;;;4.17;73.16;99860.14;232882;1177;115159;-67
2021/05/04 00:36:08;;;;;;;9.45;7.00;;;;;;;4.20;72.81;99859.77;233594;1170;116224;-68
2021/05/04 00:41:12;;;;;;;11.20;6.20;;;;;;;4.22;72.77;99850.66;233609;1177;204558;-67
2021/05/04 00:46:17;;;;;;;7.80;6.40;;;;;;;4.20;72.61;99844.75;233984;1173;115170;-69
2021/05/04 00:51:21;;;;;;;11.20;6.73;;;;;;;4.22;73.20;99850.66;234675;1174;115270;-68
2021/05/04 00:56:24;;;;;;;11.53;6.43;;;;;;;4.20;73.28;99831.56;234579;1178;115849;-68
2021/05/04 01:01:29;;;;;;;4.27;2.47;;;;;;;4.13;72.79;99828.05;233537;1177;115201;-68
2021/05/04 01:06:32;;;;;;;7.63;5.70;;;;;;;4.03;72.13;99822.27;232654;1174;115113;-68
2021/05/04 01:11:35;;;;;;;21.23;9.13;;;;;;;3.93;72.11;99819.16;232963;1177;115556;-67
2021/05/04 01:16:49;;;;;;;10.90;6.40;;;;;;;3.87;72.19;99822.55;232085;1177;115676;-69
2021/05/04 01:21:53;;;;;;;9.97;7.13;;;;;;;3.74;72.95;99815.32;232259;1177;115503;-70
2021/05/04 01:26:58;;;;;;;7.98;6.65;;;;;;;3.63;72.99;99815.84;233092;1177;114738;-70
2021/05/04 01:32:02;;;;;;;9.03;6.73;;;;;;;3.52;73.39;99819.78;232564;1177;116258;-68
2021/05/04 01:37:06;;;;;;;13.38;7.33;;;;;;;3.44;73.41;99811.98;232253;1177;115380;-69
2021/05/04 01:42:12;;;;;;;16.67;8.23;;;;;;;3.40;73.02;99802.81;232455;1177;116006;-69
2021/05/04 01:47:16;;;;;;;10.73;6.47;;;;;;;3.38;73.13;99807.45;232533;1177;115777;-70
2021/05/04 01:52:21;;;;;;;11.10;6.95;;;;;;;3.37;72.97;99805.81;232311;1178;114992;-70
2021/05/04 01:57:24;;;;;;;10.97;7.60;;;;;;;3.32;74.04;99795.86;232063;1177;115624;-70
2021/05/04 02:02:27;;;;;;;11.85;7.30;;;;;;;3.35;73.56;99782.32;232637;1177;114706;-70
2021/05/04 02:07:31;;;;;;;9.80;7.63;;;;;;;3.43;74.36;99777.91;232406;1178;115815;-69
2021/05/04 02:12:35;;;;;;;12.90;7.30;;;;;;;3.39;73.72;99772.19;232009;1177;115262;-69
2021/05/04 02:17:38;;;;;;;13.00;6.60;;;;;;;3.39;73.84;99773.02;233105;1177;115358;-70
2021/05/04 02:22:42;;;;;;;9.30;5.55;;;;;;;3.39;73.58;99766.92;232868;1178;114997;-70
2021/05/04 02:27:46;;;;;;;10.30;7.27;;;;;;;3.32;74.23;99761.61;232930;1177;114780;-70
2021/05/04 02:32:48;;;;;;;13.00;9.00;;;;;;;3.27;73.33;99757.90;233238;1177;115804;-69
2021/05/04 02:37:52;;;;;;;13.57;9.47;;;;;;;3.22;72.93;99761.09;233432;1177;116024;-70
2021/05/04 02:42:55;;;;;;;14.90;8.67;;;;;;;3.13;73.53;99756.93;232005;1177;116881;-69
2021/05/04 02:47:57;;;;;;;13.15;9.25;;;;;;;3.09;73.93;99747.77;234694;1177;115909;-69
2021/05/04 02:53:00;;;;;;;10.20;7.10;;;;;;;3.02;74.09;99750.34;234121;1177;117720;-69
2021/05/04 02:58:03;;;;;;;13.03;8.87;;;;;;;2.98;74.07;99753.53;233409;1177;115076;-69
2021/05/04 03:03:06;;;;;;;19.40;8.80;;;;;;;3.04;73.33;99740.45;232873;1180;116192;-70
2021/05/04 03:08:11;;;;;;;12.13;8.13;;;;;;;3.05;73.12;99725.46;232259;1173;115371;-72
2021/05/04 03:13:14;;;;;;;19.23;10.57;;;;;;;3.03;73.67;99727.47;232222;1177;115598;-70
2021/05/04 03:18:18;;;;;;;14.23;9.43;;;;;;;3.02;74.33;99712.66;233655;1177;115660;-70
2021/05/04 03:23:22;;;;;;;16.13;9.27;;;;;;;3.04;74.31;99710.66;233297;1177;115906;-68
2021/05/04 03:28:26;;;;;;;13.07;7.53;;;;;;;3.07;73.81;99707.63;232479;1180;114830;-68
2021/05/04 03:33:29;;;;;;;14.20;10.10;;;;;;;3.20;73.55;99701.69;232829;1177;115307;-68
2021/05/04 03:38:34;;;;;;;11.83;8.83;;;;;;;3.30;73.99;99697.75;232926;1177;115456;-69
2021/05/04 03:43:37;;;;;;;10.25;7.85;;;;;;;4.06;72.53;99696.09;232175;1177;115733;-69
2021/05/04 03:48:40;;;;;;;9.47;6.90;;;;;;;4.53;73.01;99685.80;232026;1177;115133;-69
2021/05/04 03:53:44;;;;;;;5.33;4.80;;;;;;;5.01;71.73;99684.73;232697;1177;114305;-68
2021/05/04 03:58:47;;;;;;;12.20;8.85;;;;;;;5.03;71.50;99682.70;232101;1177;115552;-68
2021/05/04 04:03:50;;;;;;;12.50;8.23;;;;;;;5.38;71.15;99677.27;232566;1177;115376;-69
2021/05/04 04:08:53;;;;;;;11.87;6.73;;;;;;;5.81;70.73;99674.22;232473;1177;120768;-69
2021/05/04 04:13:57;;;;;;;7.07;5.07;;;;;;;6.18;70.13;99670.09;232054;1177;115305;-67
2021/05/04 04:19:00;;;;;;;8.75;6.88;;;;;;;6.74;69.05;99667.63;232543;1177;115066;-67
2021/05/04 04:24:04;;;;;;;14.50;5.97;;;;;;;6.88;67.91;99671.85;232986;1177;115402;-67
2021/05/04 04:29:08;;;;;;;9.53;6.17;;;;;;;6.93;68.06;99665.92;232099;1177;116123;-67
2021/05/04 04:34:11;;;;;;;12.15;6.10;;;;;;;7.52;67.33;99660.20;233825;1177;115680;-67
2021/05/04 04:39:14;;;;;;;8.35;5.30;;;;;;;7.93;66.68;99664.95;233496;1177;115218;-68
2021/05/04 04:44:17;;;;;;;9.30;6.20;;;;;;;7.87;66.00;99663.17;234476;1171;114830;-68
2021/05/04 04:49:20;;;;;;;8.30;4.65;;;;;;;7.94;66.00;99655.95;234625;1177;115027;-68
2021/05/04 04:54:22;;;;;;;7.50;5.15;;;;;;;7.92;65.70;99657.20;234435;1179;115408;-68
2021/05/04 04:59:26;;;;;;;10.23;4.88;;;;;;;7.96;65.31;99653.05;234282;1177;115176;-68
2021/05/04 05:04:30;;;;;;;7.50;4.97;;;;;;;8.24;65.63;99648.09;234053;1177;116291;-68
2021/05/04 05:09:35;;;;;;;10.27;5.47;;;;;;;9.38;64.61;99641.05;232656;1177;117581;-68
2021/05/04 05:14:41;;;;;;;5.20;4.70;;;;;;;11.27;62.48;99628.70;233127;1179;117839;-68
2021/05/04 05:19:44;;;;;;;7.13;4.78;;;;;;;12.80;60.72;99621.72;232203;1178;117293;-67
2021/05/04 05:24:47;;;;;;;5.83;4.30;;;;;;;14.21;58.68;99620.38;232839;1178;116334;-68
2021/05/04 05:29:50;;;;;;;9.70;5.50;;;;;;;14.97;56.56;99612.61;233177;1177;115674;-66
2021/05/04 05:34:56;;;;;;;4.70;4.30;;;;;;;15.41;55.43;99612.89;231904;1180;116101;-67
2021/05/04 05:39:58;;;;;;;7.48;4.73;;;;;;;15.71;54.82;99604.02;232109;1178;115929;-69
2021/05/04 05:45:01;;;;;;;5.58;4.90;;;;;;;16.45;53.39;99595.19;232203;1177;116473;-68
2021/05/04 05:50:06;;;;;;;7.40;4.75;;;;;;;15.80;52.62;99578.22;232520;1179;116996;-67
2021/05/04 05:55:11;;;;;;;4.95;4.45;;;;;;;15.32;52.97;99578.77;232637;1177;115546;-68
2021/05/04 06:00:17;;;;;;;5.53;4.97;;;;;;;15.45;52.23;99565.61;232846;1170;116116;-65
2021/05/04 06:05:22;;;;;;;5.60;4.65;;;;;;;14.86;52.20;99551.94;232118;1177;117860;-68
2021/05/04 06:10:29;;;;;;;6.60;5.33;;;;;;;14.32;52.38;99546.97;234337;1177;115835;-66
2021/05/04 06:15:34;;;;;;;8.97;4.67;;;;;;;14.02;53.04;99538.83;234600;1178;116532;-67
2021/05/04 06:20:40;;;;;;;6.15;5.00;;;;;;;13.72;53.07;99529.58;234413;1177;117350;-67
2021/05/04 06:25:44;;;;;;;8.75;5.28;;;;;;;13.48;53.10;99518.44;233535;1177;116907;-69
2021/05/04 06:30:48;;;;;;;6.00;5.00;;;;;;;13.44;53.40;99512.02;233717;1179;115990;-67
2021/05/04 06:35:51;;;;;;;8.40;4.60;;;;;;;13.30;53.05;99502.81;233327;1177;116877;-68
2021/05/04 06:40:54;;;;;;;4.50;3.60;;;;;;;13.39;52.59;99492.43;233244;1173;116502;-68
2021/05/04 06:45:59;;;;;;;5.03;3.53;;;;;;;13.51;53.25;99493.02;233509;1177;115248;-66
2021/05/04 06:51:03;;;;;;;4.78;4.03;;;;;;;13.57;52.41;99483.14;233626;1177;118392;-68
2021/05/04 06:56:06;;;;;;;7.95;3.70;;;;;;;13.48;52.77;99478.27;234629;1177;115656;-66
2021/05/04 07:01:09;;;;;;;6.70;4.27;;;;;;;13.26;52.18;99472.27;234700;1179;117035;-67
2021/05/04 07:06:12;;;;;;;6.60;4.80;;;;;;;13.27;52.93;99459.69;234373;1179;116444;-66
2021/05/04 07:11:15;;;;;;;5.60;4.10;;;;;;;13.39;53.09;99460.30;234482;1177;121283;-67
2021/05/04 07:16:17;;;;;;;8.03;4.13;;;;;;;14.01;53.14;99457.62;233658;1177;115366;-67
2021/05/04 07:21:20;;;;;;;4.90;4.40;;;;;;;14.60;52.32;99440.31;233155;1177;115247;-68
2021/05/04 07:26:24;;;;;;;7.30;4.83;;;;;;;14.96;51.99;99433.86;232814;1177;115415;-68
2021/05/04 07:31:28;;;;;;;7.30;4.90;;;;;;;15.28;51.14;99413.92;232475;1179;115813;-68
2021/05/04 07:36:31;;;;;;;5.60;5.10;;;;;;;15.48;51.10;99403.09;232368;1177;114658;-68
2021/05/04 07:41:35;;;;;;;7.10;4.65;;;;;;;15.63;50.86;99404.93;233069;1177;116327;-68
2021/05/04 07:46:38;;;;;;;6.70;4.70;;;;;;;15.95;51.28;99409.88;232377;1177;115625;-69
2021/05/04 07:51:42;;;;;;;4.83;4.13;;;;;;;16.23;50.71;99387.64;232306;1177;115685;-69
2021/05/04 07:56:48;;;;;;;4.30;3.78;;;;;;;16.48;49.83;99378.59;232412;1179;115184;-69
2021/05/04 08:01:51;;;;;;;4.60;3.83;;;;;;;16.31;49.09;99378.98;232033;1177;115151;-68
2021/05/04 08:06:56;;;;;;;4.55;3.80;;;;;;;16.33;49.08;99370.63;232789;1177;116184;-67
2021/05/04 08:12:00;;;;;;;3.90;3.53;;;;;;;16.55;48.94;99354.83;232787;1177;115106;-68
2021/05/04 08:17:03;;;;;;;7.57;4.07;;;;;;;16.61;49.10;99344.83;232471;1177;116034;-69
2021/05/04 08:22:07;;;;;;;5.17;4.67;;;;;;;16.66;48.80;99345.63;233586;1177;115552;-67
2021/05/04 08:27:11;;;;;;;5.95;4.55;;;;;;;16.71;48.51;99344.77;233000;1177;115285;-66
2021/05/04 08:32:14;;;;;;;5.83;4.00;;;;;;;16.90;47.98;99334.07;233044;1177;115691;-69
2021/05/04 08:37:18;;;;;;;5.90;3.77;;;;;;;17.01;48.06;99328.30;233776;1177;114744;-66
2021/05/04 08:42:21;;;;;;;4.50;4.10;;;;;;;17.12;47.67;99318.22;233579;1177;115281;-66
2021/05/04 08:47:24;;;;;;;2.17;1.97;;;;;;;17.23;47.74;99311.60;234145;1177;114728;-66
2021/05/04 08:52:27;;;;;;;5.60;3.20;;;;;;;17.20;46.99;99297.91;234519;1173;115279;-67
2021/05/04 08:57:29;;;;;;;7.73;4.10;;;;;;;17.40;47.25;99284.19;234613;1177;116813;-67
2021/05/04 09:02:55;;;;;;;2.70;2.55;;;;;;;17.79;46.90;99279.31;234533;1177;116114;-67
2021/05/04 09:07:58;;;;;;;5.67;3.37;;;;;;;17.88;46.54;99267.88;234441;1177;115027;-67
2021/05/04 09:13:07;;;;;;;3.03;2.63;;;;;;;18.01;46.23;99270.63;232986;1177;115336;-66
2021/05/04 09:24:16;;;;;;;2.27;2.13;;;;;;;17.91;45.56;99248.41;232212;1177;116285;-66
2021/05/04 09:29:19;;;;;;;4.55;3.50;;;;;;;18.01;45.90;99257.15;232971;1177;115796;-66
2021/05/04 09:34:23;;;;;;;5.70;3.43;;;;;;;17.93;44.57;99230.05;233179;1177;115430;-66
2021/05/04 09:39:34;;;;;;;8.40;3.30;;;;;;;17.65;44.18;99223.76;232613;1177;115666;-67
2021/05/04 09:44:58;;;;;;;4.50;3.25;;;;;;;17.35;43.80;99212.31;232417;1177;114939;-69
2021/05/04 09:50:03;;;;;;;3.93;3.58;;;;;;;17.10;43.95;99212.67;232871;1177;114723;-69
2021/05/04 09:55:15;;;;;;;3.70;3.40;;;;;;;16.95;44.22;99202.89;232586;1177;115523;-69
2021/05/04 10:00:28;;;;;;;3.33;3.03;;;;;;;16.95;44.21;99192.13;232039;1177;116487;-69
2021/05/04 10:05:36;;;;;;;2.33;2.17;;;;;;;16.91;44.62;99193.79;232631;1177;115053;-69
2021/05/04 10:10:39;;;;;;;4.35;2.90;;;;;;;16.85;44.33;99176.09;232869;1177;115314;-68
2021/05/04 10:15:46;;;;;;;2.63;2.43;;;;;;;16.74;44.27;99156.61;232660;1178;114918;-68
2021/05/04 10:20:55;;;;;;;4.43;4.03;;;;;;;16.59;44.33;99145.99;231990;1170;115076;-69
2021/05/04 10:26:00;;;;;;;2.70;2.50;;;;;;;16.50;44.27;99145.85;233393;1177;115653;-66
2021/05/04 10:31:08;;;;;;;3.60;3.30;;;;;;;16.38;43.72;99132.00;232231;1177;115460;-68
2021/05/04 10:36:32;;;;;;;4.55;3.50;;;;;;;16.34;44.28;99109.45;233653;1177;116009;-66
2021/05/04 10:41:54;;;;;;;3.85;2.45;;;;;;;16.28;44.26;99104.41;233691;1177;115593;-66
2021/05/04 10:46:57;;;;;;;5.03;3.68;;;;;;;16.45;44.32;99086.72;232939;1177;116566;-68
2021/05/04 10:52:04;;;;;;;6.68;3.03;;;;;;;16.69;43.84;99092.08;233890;1177;116152;-67
2021/05/04 10:57:07;;;;;;;3.55;2.73;;;;;;;17.04;43.93;99080.00;233956;1177;116816;-66
2021/05/04 11:02:09;;;;;;;3.10;2.40;;;;;;;17.29;44.25;99059.13;234558;1180;116182;-66
2021/05/04 11:07:13;;;;;;;3.83;2.80;;;;;;;17.43;43.02;99049.17;233614;1177;116670;-66
2021/05/04 11:12:36;;;;;;;5.23;2.57;;;;;;;17.43;42.60;99033.01;232329;1177;116226;-66
2021/05/04 11:17:42;;;;;;;3.33;2.93;;;;;;;17.37;42.63;99043.09;234063;1178;140587;-66
2021/05/04 11:22:45;;;;;;;2.80;2.43;;;;;;;17.17;42.32;99038.84;233664;1177;115242;-66
2021/05/04 11:27:56;;;;;;;3.38;3.10;;;;;;;16.88;42.75;99022.08;233841;1177;114964;-66
2021/05/04 11:32:59;;;;;;;2.80;2.60;;;;;;;16.57;42.51;99015.53;233553;1177;115218;-66
2021/05/04 11:38:02;;;;;;;3.00;2.80;;;;;;;16.30;43.01;99013.48;232988;1177;116140;-66
2021/05/04 11:43:07;;;;;;;2.90;2.60;;;;;;;16.14;43.55;99005.63;233353;1177;115119;-66
2021/05/04 11:48:11;;;;;;;2.60;2.40;;;;;;;15.91;43.27;99005.64;233187;1177;114994;-69
2021/05/04 11:53:18;;;;;;;4.10;2.78;;;;;;;15.81;44.05;98998.52;232483;1177;115535;-68
2021/05/04 11:58:24;;;;;;;4.90;3.10;;;;;;;15.70;43.93;98980.90;232483;1177;115298;-68
2021/05/04 12:03:28;;;;;;;3.08;2.58;;;;;;;15.48;44.38;98952.64;232162;1177;115057;-68
2021/05/04 12:08:31;;;;;;;4.60;2.75;;;;;;;15.34;45.09;98946.34;232573;1180;115550;-68
2021/05/04 12:13:34;;;;;;;3.65;3.00;;;;;;;15.20;45.12;98931.20;232648;1177;115518;-68
2021/05/04 12:18:39;;;;;;;8.60;3.40;;;;;;;15.08;45.33;98927.02;232720;1177;115250;-69
2021/05/04 12:23:43;;;;;;;3.15;2.95;;;;;;;15.02;45.74;98920.09;232440;1177;116090;-68
2021/05/04 12:28:57;;;;;;;3.00;2.60;;;;;;;15.08;45.96;98904.73;232812;1177;115140;-68
2021/05/04 12:34:00;;;;;;;3.50;3.20;;;;;;;15.16;45.88;98888.81;232687;1177;115833;-69
2021/05/04 12:39:11;;;;;;;2.90;2.70;;;;;;;15.23;46.25;98890.38;232553;1177;114821;-69
2021/05/04 12:44:23;;;;;;;3.17;2.83;;;;;;;15.26;46.43;98869.13;232565;1177;115961;-68
2021/05/04 12:49:40;;;;;;;3.20;2.90;;;;;;;15.18;45.83;98869.74;233506;1177;115770;-68
2021/05/04 12:54:45;;;;;;;3.93;1.80;;;;;;;15.13;46.04;98864.42;233668;1178;115353;-68
2021/05/04 12:59:52;;;;;;;;;;;;;;;14.96;45.95;98856.84;234560;1177;115549;-69
2021/05/04 13:05:00;;;;;;;2.70;2.30;;;;;;;14.86;46.47;98856.94;235147;1177;103002;-68
2021/05/04 13:10:25;;;;;;;3.70;3.40;;;;;;;14.81;46.49;98849.73;234514;1177;114795;-66
2021/05/04 13:16:04;;;;;;;2.05;1.65;;;;;;;14.76;46.50;98824.83;234316;1177;115493;-67
2021/05/04 13:21:26;;;;;;;2.73;2.40;;;;;;;14.84;46.89;98813.48;234454;1177;115844;-66
2021/05/04 13:32:09;;;;;;;3.25;2.10;;;;;;;14.94;47.12;98810.70;232282;1177;115399;-68
2021/05/04 13:37:18;;;;;;;2.90;2.57;;;;;;;14.96;47.15;98810.41;233232;1177;115123;-67
2021/05/04 13:48:15;;;;;;;2.90;2.60;;;;;;;15.04;47.46;98791.78;232810;1177;116018;-65
2021/05/04 13:53:19;;;;;;;2.57;2.43;;;;;;;15.01;47.14;98784.30;232747;1177;116629;-68
2021/05/04 13:58:28;;;;;;;2.30;2.03;;;;;;;14.97;47.18;98772.56;232316;1177;116318;-69
2021/05/04 14:29:48;;;;;;;2.30;1.50;;;;;;;15.03;47.62;98716.91;233118;1177;114749;-68
2021/05/04 14:34:56;;;;;;;2.85;2.35;;;;;;;14.97;47.40;98721.58;233161;1177;115599;-69
2021/05/04 14:45:39;;;;;;;5.00;2.25;;;;;;;14.87;47.00;98710.95;233234;1177;117086;-69
2021/05/04 15:06:13;;;;;;;5.67;2.53;;;;;;;15.02;47.22;98673.17;233318;1174;120439;-69
2021/05/04 15:11:17;;;;;;;5.23;2.63;;;;;;;15.18;47.52;98673.78;233933;1177;115316;-66
2021/05/04 15:16:51;;;;;;;2.60;2.20;;;;;;;15.25;47.23;98684.95;233768;1177;115740;-69
2021/05/04 15:22:00;;;;;;;5.55;3.00;;;;;;;15.32;47.48;98681.88;232845;1177;115790;-68
2021/05/04 15:27:04;;;;;;;5.20;2.65;;;;;;;15.39;46.95;98685.00;232940;1177;115547;-69
2021/05/04 15:37:43;;;;;;;3.05;2.75;;;;;;;15.54;47.24;98673.25;232413;1179;115100;-70
2021/05/04 15:42:47;;;;;;;2.80;2.17;;;;;;;15.42;47.41;98679.85;232745;1179;115038;-66
2021/05/04 15:47:54;;;;;;;2.53;2.37;;;;;;;15.39;47.03;98668.89;233202;1177;115871;-66
2021/05/04 16:03:45;;;;;;;4.45;2.35;;;;;;;15.26;47.16;98657.02;232563;1177;115721;-66
2021/05/04 16:13:58;;;;;;;2.07;1.97;;;;;;;15.01;46.77;98663.53;232111;1177;115456;-68
2021/05/04 16:34:49;;;;;;;2.10;1.67;;;;;;;14.46;46.03;98657.00;232247;1177;115942;-68
2021/05/04 16:39:53;;;;;;;2.00;1.80;;;;;;;14.43;46.52;98644.16;233296;1177;115766;-69
2021/05/04 16:44:55;;;;;;;2.10;1.20;;;;;;;14.45;45.94;98640.11;232642;1173;115384;-67
2021/05/04 16:49:59;;;;;;;6.97;1.40;;;;;;;14.44;45.92;98627.78;233153;1177;116078;-69
2021/05/04 16:55:03;;;;;;;1.80;1.43;;;;;;;14.44;45.77;98611.70;233492;1177;115973;-68
2021/05/04 17:00:08;;;;;;;2.00;1.33;;;;;;;14.37;46.08;98607.77;231963;1177;117169;-67
2021/05/04 17:05:16;;;;;;;7.80;1.65;;;;;;;14.27;46.07;98608.67;233797;1174;117074;-67
2021/05/04 17:10:24;;;;;;;2.10;2.00;;;;;;;14.18;46.22;98590.81;233730;1178;115779;-69
2021/05/04 17:15:32;;;;;;;1.73;1.28;;;;;;;14.08;46.12;98581.80;233928;1178;116901;-66
2021/05/04 17:20:35;;;;;;;2.65;1.95;;;;;;;13.99;46.15;98569.34;234495;1177;116586;-68
2021/05/04 17:25:38;;;;;;;2.15;1.95;;;;;;;13.92;45.97;98571.55;233889;1177;116207;-66
2021/05/04 17:30:41;;;;;;;0.90;0.90;;;;;;;13.83;46.19;98556.09;234166;1177;115258;-68
2021/05/04 17:35:52;;;;;;;1.60;1.50;;;;;;;13.75;46.21;98566.66;234445;1177;116106;-67
2021/05/04 17:40:59;;;;;;;2.40;1.70;;;;;;;13.70;46.36;98548.75;233201;1177;115294;-67
2021/05/04 17:46:07;;;;;;;2.48;2.15;;;;;;;13.68;46.72;98547.44;233987;1177;116076;-67
2021/05/04 17:51:12;;;;;;;2.80;1.50;;;;;;;13.62;46.99;98533.30;232932;1174;115209;-66
2021/05/04 17:56:15;;;;;;;2.47;1.63;;;;;;;13.57;47.04;98525.31;232852;1177;116546;-67
2021/05/04 18:01:19;;;;;;;2.05;1.95;;;;;;;13.51;46.86;98526.44;233167;1177;117368;-67
2021/05/04 18:06:26;;;;;;;2.63;2.17;;;;;;;13.47;47.32;98528.08;233181;1177;115480;-69
2021/05/04 18:11:33;;;;;;;2.25;2.03;;;;;;;13.42;47.32;98525.47;231913;1177;115919;-67
2021/05/04 18:22:02;;;;;;;4.23;1.93;;;;;;;13.33;47.17;98505.75;232032;1177;115374;-66
2021/05/04 18:27:06;;;;;;;2.75;2.43;;;;;;;13.30;47.25;98506.31;232403;1177;115803;-66
2021/05/04 18:32:16;;;;;;;2.60;2.28;;;;;;;13.32;47.11;98504.16;232166;1177;115500;-67
2021/05/04 18:37:54;;;;;;;2.70;2.05;;;;;;;13.34;47.31;98508.14;232139;1171;114920;-66
2021/05/04 19:42:04;;;;;;;8.40;3.00;;;;;;;13.31;48.18;98548.84;234075;1178;115489;-67
2021/05/04 20:08:22;;;;;;;3.50;2.60;;;;;;;12.81;52.66;98532.10;232186;1177;115096;-67
2021/05/04 20:13:25;;;;;;;2.73;2.53;;;;;;;12.63;53.82;98540.77;233622;1177;115144;-70
2021/05/04 20:18:33;;;;;;;3.08;2.65;;;;;;;12.47;54.68;98537.39;233143;1177;116345;-68
2021/05/04 20:23:36;;;;;;;2.58;2.38;;;;;;;12.26;55.83;98525.19;232230;1179;116300;-69
2021/05/04 20:28:41;;;;;;;2.25;2.05;;;;;;;12.01;56.93;98527.98;232777;1177;115447;-68
2021/05/04 20:33:44;;;;;;;3.17;2.60;;;;;;;11.85;57.34;98521.11;233070;1176;115115;-69
2021/05/04 20:38:47;;;;;;;3.55;2.90;;;;;;;11.73;58.21;98527.52;232330;1177;116610;-68
2021/05/04 20:43:52;;;;;;;3.53;3.15;;;;;;;11.63;59.12;98532.87;232742;1179;116183;-68
2021/05/04 20:48:57;;;;;;;4.13;3.20;;;;;;;11.61;59.60;98543.05;232130;1177;115739;-69
2021/05/04 20:54:01;;;;;;;4.25;3.50;;;;;;;11.59;60.22;98536.38;233009;1177;116358;-69
2021/05/04 20:59:05;;;;;;;3.70;3.30;;;;;;;11.47;61.03;98542.78;233457;1177;115849;-67
2021/05/04 21:04:09;;;;;;;2.87;2.53;;;;;;;11.35;61.69;98536.92;233645;1177;115984;-67
2021/05/04 21:09:18;;;;;;;6.63;3.73;;;;;;;11.28;62.33;98535.62;232254;1177;119235;-68
2021/05/04 21:14:22;;;;;;;3.05;2.75;;;;;;;11.09;63.41;98527.34;232761;1177;115122;-71
2021/05/04 21:19:32;;;;;;;4.05;3.65;;;;;;;11.03;63.98;98518.53;233815;1177;115418;-68
2021/05/04 21:24:43;;;;;;;5.83;3.93;;;;;;;11.08;64.06;98515.08;234185;1177;116138;-70
2021/05/04 21:29:48;;;;;;;4.75;4.15;;;;;;;11.07;64.62;98516.94;234373;1173;114953;-70
2021/05/04 21:34:52;;;;;;;3.65;3.35;;;;;;;11.05;64.93;98528.94;234481;1177;115460;-70
2021/05/04 21:39:57;;;;;;;4.95;4.55;;;;;;;11.00;65.59;98529.77;234051;1177;115543;-69
2021/05/04 21:45:02;;;;;;;7.90;4.30;;;;;;;10.99;65.66;98520.16;232994;1177;115842;-69
2021/05/04 21:50:08;;;;;;;6.00;3.57;;;;;;;10.91;66.08;98515.36;233556;1180;116162;-68
2021/05/04 21:55:13;;;;;;;6.00;4.48;;;;;;;10.83;65.98;98513.21;232355;1178;116691;-68
2021/05/04 22:00:20;;;;;;;5.50;4.60;;;;;;;10.79;66.36;98504.94;232134;1177;116509;-67
2021/05/04 22:05:24;;;;;;;4.30;3.57;;;;;;;10.65;66.97;98495.09;233522;1177;116657;-67
2021/05/04 22:10:32;;;;;;;9.05;4.18;;;;;;;10.55;67.03;98479.08;232919;1177;116441;-67
2021/05/04 22:36:50;;;;;;;4.60;4.20;;;;;;;10.15;68.69;98475.23;232689;1177;115570;-69
2021/05/04 22:42:01;;;;;;;5.83;3.70;;;;;;;10.00;68.29;98478.66;233363;1177;115132;-69
2021/05/04 23:18:56;;;;;;;5.27;3.47;;;;;;;9.62;69.78;98450.56;233139;1177;115729;-71
2021/05/04 23:23:59;;;;;;;3.60;3.30;;;;;;;9.61;70.26;98448.97;233988;1177;114729;-73
2021/05/04 23:29:03;;;;;;;3.40;3.10;;;;;;;9.65;69.34;98452.71;232618;1177;115377;-73
2021/05/04 23:34:08;;;;;;;3.27;2.97;;;;;;;9.74;69.58;98453.82;233893;1180;114731;-67
2021/05/04 23:39:27;;;;;;;2.83;2.63;;;;;;;9.77;69.13;98453.30;234583;1176;114734;-68
2021/05/04 23:44:29;;;;;;;2.30;2.00;;;;;;;9.78;69.29;98454.88;233519;1179;115279;-67
2021/05/04 23:49:33;;;;;;;4.30;3.75;;;;;;;9.77;69.18;98455.97;233745;1179;115085;-68
2021/05/04 23:54:36;;;;;;;3.70;3.40;;;;;;;9.76;69.65;98457.03;233686;1177;115871;-67
2021/05/04 23:59:40;;;;;;;2.93;2.73;;;;;;;9.74;69.25;98448.50;232879;1177;114611;-68
